sensor_id;sensor_type;location;lat;lon;timestamp;P1;durP1;ratioP1;P2;durP2;ratioP2
19780;SDS011;10050;55.492;13.506;2024-01-25T00:00:08;19.13;;;4.73;;
19780;SDS011;10050;55.492;13.506;2024-01-25T00:02:34;19.53;;;4.43;;
19780;SDS011;10050;55.492;13.506;2024-01-25T00:05:01;21.40;;;5.17;;
19780;SDS011;10050;55.492;13.506;2024-01-25T00:07:29;15.97;;;3.83;;
19780;SDS011;10050;55.492;13.506;2024-01-25T00:09:55;22.57;;;4.10;;
19780;SDS011;10050;55.492;13.506;2024-01-25T00:12:22;18.90;;;4.23;;
19780;SDS011;10050;55.492;13.506;2024-01-25T00:14:48;24.37;;;5.17;;
19780;SDS011;10050;55.492;13.506;2024-01-25T00:17:14;23.83;;;5.23;;
19780;SDS011;10050;55.492;13.506;2024-01-25T00:19:39;20.33;;;4.57;;
19780;SDS011;10050;55.492;13.506;2024-01-25T00:22:06;21.60;;;5.57;;
19780;SDS011;10050;55.492;13.506;2024-01-25T00:24:32;17.90;;;4.27;;
19780;SDS011;10050;55.492;13.506;2024-01-25T00:26:58;11.67;;;3.57;;
19780;SDS011;10050;55.492;13.506;2024-01-25T00:29:24;19.43;;;4.27;;
19780;SDS011;10050;55.492;13.506;2024-01-25T00:31:49;20.03;;;3.60;;
19780;SDS011;10050;55.492;13.506;2024-01-25T00:34:15;19.53;;;4.23;;
19780;SDS011;10050;55.492;13.506;2024-01-25T00:36:41;21.20;;;4.23;;
19780;SDS011;10050;55.492;13.506;2024-01-25T00:39:07;9.10;;;3.03;;
19780;SDS011;10050;55.492;13.506;2024-01-25T00:41:33;17.37;;;4.03;;
19780;SDS011;10050;55.492;13.506;2024-01-25T00:44:00;20.03;;;4.00;;
19780;SDS011;10050;55.492;13.506;2024-01-25T00:46:26;13.50;;;3.30;;
19780;SDS011;10050;55.492;13.506;2024-01-25T00:48:52;16.27;;;3.80;;
19780;SDS011;10050;55.492;13.506;2024-01-25T00:51:20;16.33;;;4.13;;
19780;SDS011;10050;55.492;13.506;2024-01-25T00:53:48;19.07;;;3.80;;
19780;SDS011;10050;55.492;13.506;2024-01-25T00:56:14;11.67;;;4.53;;
19780;SDS011;10050;55.492;13.506;2024-01-25T00:58:40;23.17;;;4.20;;
19780;SDS011;10050;55.492;13.506;2024-01-25T01:01:06;15.53;;;3.77;;
19780;SDS011;10050;55.492;13.506;2024-01-25T01:03:32;16.57;;;4.20;;
19780;SDS011;10050;55.492;13.506;2024-01-25T01:05:58;21.60;;;3.77;;
19780;SDS011;10050;55.492;13.506;2024-01-25T01:08:24;15.57;;;3.60;;
19780;SDS011;10050;55.492;13.506;2024-01-25T01:10:50;23.03;;;5.07;;
19780;SDS011;10050;55.492;13.506;2024-01-25T01:13:18;16.83;;;3.90;;
19780;SDS011;10050;55.492;13.506;2024-01-25T01:15:46;22.57;;;4.30;;
19780;SDS011;10050;55.492;13.506;2024-01-25T01:18:11;18.53;;;4.03;;
19780;SDS011;10050;55.492;13.506;2024-01-25T01:20:37;21.20;;;5.20;;
19780;SDS011;10050;55.492;13.506;2024-01-25T01:23:03;22.30;;;4.70;;
19780;SDS011;10050;55.492;13.506;2024-01-25T01:25:28;16.60;;;3.77;;
19780;SDS011;10050;55.492;13.506;2024-01-25T01:27:54;20.33;;;4.93;;
19780;SDS011;10050;55.492;13.506;2024-01-25T01:30:22;19.03;;;4.77;;
19780;SDS011;10050;55.492;13.506;2024-01-25T01:32:48;21.30;;;4.60;;
19780;SDS011;10050;55.492;13.506;2024-01-25T01:35:14;21.47;;;5.27;;
19780;SDS011;10050;55.492;13.506;2024-01-25T01:37:39;20.60;;;4.60;;
19780;SDS011;10050;55.492;13.506;2024-01-25T01:40:05;16.77;;;4.17;;
19780;SDS011;10050;55.492;13.506;2024-01-25T01:42:31;18.20;;;5.20;;
19780;SDS011;10050;55.492;13.506;2024-01-25T01:44:57;30.53;;;5.30;;
19780;SDS011;10050;55.492;13.506;2024-01-25T01:47:23;24.83;;;5.13;;
19780;SDS011;10050;55.492;13.506;2024-01-25T01:49:49;20.10;;;4.90;;
19780;SDS011;10050;55.492;13.506;2024-01-25T01:52:17;22.63;;;5.80;;
19780;SDS011;10050;55.492;13.506;2024-01-25T01:54:43;24.97;;;5.33;;
19780;SDS011;10050;55.492;13.506;2024-01-25T01:57:09;20.70;;;4.47;;
19780;SDS011;10050;55.492;13.506;2024-01-25T01:59:35;26.80;;;5.83;;
19780;SDS011;10050;55.492;13.506;2024-01-25T02:02:01;24.77;;;5.50;;
19780;SDS011;10050;55.492;13.506;2024-01-25T02:04:27;18.70;;;5.53;;
19780;SDS011;10050;55.492;13.506;2024-01-25T02:06:52;25.20;;;5.47;;
19780;SDS011;10050;55.492;13.506;2024-01-25T02:09:18;23.97;;;4.67;;
19780;SDS011;10050;55.492;13.506;2024-01-25T02:11:44;21.40;;;4.87;;
19780;SDS011;10050;55.492;13.506;2024-01-25T02:14:09;19.53;;;5.17;;
19780;SDS011;10050;55.492;13.506;2024-01-25T02:16:36;24.60;;;5.17;;
19780;SDS011;10050;55.492;13.506;2024-01-25T02:19:02;20.73;;;4.27;;
19780;SDS011;10050;55.492;13.506;2024-01-25T02:21:28;24.30;;;4.83;;
19780;SDS011;10050;55.492;13.506;2024-01-25T02:23:54;21.20;;;4.90;;
19780;SDS011;10050;55.492;13.506;2024-01-25T02:26:19;26.40;;;5.40;;
19780;SDS011;10050;55.492;13.506;2024-01-25T02:28:45;20.57;;;4.87;;
19780;SDS011;10050;55.492;13.506;2024-01-25T02:31:11;18.63;;;5.47;;
19780;SDS011;10050;55.492;13.506;2024-01-25T02:33:36;19.93;;;5.27;;
19780;SDS011;10050;55.492;13.506;2024-01-25T02:36:02;23.83;;;5.10;;
19780;SDS011;10050;55.492;13.506;2024-01-25T02:38:28;17.47;;;4.10;;
19780;SDS011;10050;55.492;13.506;2024-01-25T02:40:53;20.63;;;5.37;;
19780;SDS011;10050;55.492;13.506;2024-01-25T02:43:19;23.33;;;4.93;;
19780;SDS011;10050;55.492;13.506;2024-01-25T02:45:45;23.23;;;4.37;;
19780;SDS011;10050;55.492;13.506;2024-01-25T02:48:11;26.90;;;4.73;;
19780;SDS011;10050;55.492;13.506;2024-01-25T02:50:36;19.47;;;5.27;;
19780;SDS011;10050;55.492;13.506;2024-01-25T02:53:02;19.43;;;4.40;;
19780;SDS011;10050;55.492;13.506;2024-01-25T02:55:27;22.33;;;4.90;;
19780;SDS011;10050;55.492;13.506;2024-01-25T02:57:53;21.20;;;4.53;;
19780;SDS011;10050;55.492;13.506;2024-01-25T03:00:19;13.93;;;4.97;;
19780;SDS011;10050;55.492;13.506;2024-01-25T03:02:44;18.80;;;4.77;;
19780;SDS011;10050;55.492;13.506;2024-01-25T03:05:10;22.83;;;4.63;;
19780;SDS011;10050;55.492;13.506;2024-01-25T03:07:36;17.80;;;4.27;;
19780;SDS011;10050;55.492;13.506;2024-01-25T03:10:01;14.63;;;4.43;;
19780;SDS011;10050;55.492;13.506;2024-01-25T03:12:27;20.33;;;4.87;;
19780;SDS011;10050;55.492;13.506;2024-01-25T03:14:53;15.50;;;4.47;;
19780;SDS011;10050;55.492;13.506;2024-01-25T03:17:18;23.27;;;4.90;;
19780;SDS011;10050;55.492;13.506;2024-01-25T03:19:44;23.60;;;5.23;;
19780;SDS011;10050;55.492;13.506;2024-01-25T03:22:10;27.10;;;5.47;;
19780;SDS011;10050;55.492;13.506;2024-01-25T03:24:38;21.00;;;4.73;;
19780;SDS011;10050;55.492;13.506;2024-01-25T03:27:04;21.03;;;5.17;;
19780;SDS011;10050;55.492;13.506;2024-01-25T03:29:30;22.30;;;5.80;;
19780;SDS011;10050;55.492;13.506;2024-01-25T03:31:56;27.87;;;4.60;;
19780;SDS011;10050;55.492;13.506;2024-01-25T03:34:22;19.03;;;4.53;;
19780;SDS011;10050;55.492;13.506;2024-01-25T03:36:47;23.57;;;4.67;;
19780;SDS011;10050;55.492;13.506;2024-01-25T03:39:13;19.57;;;5.23;;
19780;SDS011;10050;55.492;13.506;2024-01-25T03:41:38;19.77;;;3.87;;
19780;SDS011;10050;55.492;13.506;2024-01-25T03:44:04;18.63;;;5.53;;
19780;SDS011;10050;55.492;13.506;2024-01-25T03:46:30;27.23;;;4.97;;
19780;SDS011;10050;55.492;13.506;2024-01-25T03:48:55;24.17;;;4.23;;
19780;SDS011;10050;55.492;13.506;2024-01-25T03:51:21;23.83;;;5.00;;
19780;SDS011;10050;55.492;13.506;2024-01-25T03:53:49;20.90;;;4.50;;
19780;SDS011;10050;55.492;13.506;2024-01-25T03:56:14;27.27;;;5.63;;
19780;SDS011;10050;55.492;13.506;2024-01-25T03:58:42;25.23;;;4.80;;
19780;SDS011;10050;55.492;13.506;2024-01-25T04:01:08;21.93;;;5.07;;
19780;SDS011;10050;55.492;13.506;2024-01-25T04:03:34;18.87;;;4.40;;
19780;SDS011;10050;55.492;13.506;2024-01-25T04:06:00;15.23;;;4.60;;
19780;SDS011;10050;55.492;13.506;2024-01-25T04:08:26;23.90;;;5.17;;
19780;SDS011;10050;55.492;13.506;2024-01-25T04:10:52;21.23;;;5.10;;
19780;SDS011;10050;55.492;13.506;2024-01-25T04:13:17;16.63;;;5.00;;
19780;SDS011;10050;55.492;13.506;2024-01-25T04:15:43;20.47;;;4.80;;
19780;SDS011;10050;55.492;13.506;2024-01-25T04:18:09;19.80;;;5.13;;
19780;SDS011;10050;55.492;13.506;2024-01-25T04:20:35;20.10;;;5.30;;
19780;SDS011;10050;55.492;13.506;2024-01-25T04:23:01;18.23;;;4.33;;
19780;SDS011;10050;55.492;13.506;2024-01-25T04:25:30;18.70;;;3.97;;
19780;SDS011;10050;55.492;13.506;2024-01-25T04:27:55;21.87;;;4.30;;
19780;SDS011;10050;55.492;13.506;2024-01-25T04:30:21;19.83;;;5.17;;
19780;SDS011;10050;55.492;13.506;2024-01-25T04:32:47;27.07;;;5.10;;
19780;SDS011;10050;55.492;13.506;2024-01-25T04:35:13;16.73;;;4.00;;
19780;SDS011;10050;55.492;13.506;2024-01-25T04:37:38;15.83;;;4.40;;
19780;SDS011;10050;55.492;13.506;2024-01-25T04:40:04;25.00;;;5.50;;
19780;SDS011;10050;55.492;13.506;2024-01-25T04:42:32;17.23;;;4.80;;
19780;SDS011;10050;55.492;13.506;2024-01-25T04:44:58;21.03;;;4.63;;
19780;SDS011;10050;55.492;13.506;2024-01-25T04:47:29;25.57;;;5.90;;
19780;SDS011;10050;55.492;13.506;2024-01-25T04:50:00;21.37;;;4.53;;
19780;SDS011;10050;55.492;13.506;2024-01-25T04:52:30;19.73;;;4.73;;
19780;SDS011;10050;55.492;13.506;2024-01-25T04:54:58;23.70;;;5.50;;
19780;SDS011;10050;55.492;13.506;2024-01-25T04:57:28;16.47;;;4.07;;
19780;SDS011;10050;55.492;13.506;2024-01-25T04:59:53;27.07;;;5.43;;
19780;SDS011;10050;55.492;13.506;2024-01-25T05:02:19;18.07;;;5.10;;
19780;SDS011;10050;55.492;13.506;2024-01-25T05:04:46;24.07;;;5.10;;
19780;SDS011;10050;55.492;13.506;2024-01-25T05:07:18;26.43;;;5.43;;
19780;SDS011;10050;55.492;13.506;2024-01-25T05:10:07;23.80;;;4.67;;
19780;SDS011;10050;55.492;13.506;2024-01-25T05:13:14;21.30;;;5.53;;
19780;SDS011;10050;55.492;13.506;2024-01-25T05:15:45;23.40;;;5.43;;
19780;SDS011;10050;55.492;13.506;2024-01-25T05:18:11;18.83;;;4.90;;
19780;SDS011;10050;55.492;13.506;2024-01-25T05:20:39;20.23;;;4.90;;
19780;SDS011;10050;55.492;13.506;2024-01-25T05:23:10;16.70;;;3.90;;
19780;SDS011;10050;55.492;13.506;2024-01-25T05:25:51;14.63;;;3.67;;
19780;SDS011;10050;55.492;13.506;2024-01-25T05:28:17;15.90;;;4.10;;
19780;SDS011;10050;55.492;13.506;2024-01-25T05:30:46;28.97;;;5.13;;
19780;SDS011;10050;55.492;13.506;2024-01-25T05:53:48;25.60;;;4.17;;
19780;SDS011;10050;55.492;13.506;2024-01-25T05:56:21;18.70;;;4.20;;
19780;SDS011;10050;55.492;13.506;2024-01-25T05:58:47;12.97;;;4.20;;
19780;SDS011;10050;55.492;13.506;2024-01-25T06:01:16;21.53;;;3.90;;
19780;SDS011;10050;55.492;13.506;2024-01-25T06:03:45;23.73;;;3.77;;
19780;SDS011;10050;55.492;13.506;2024-01-25T06:06:14;14.60;;;3.53;;
19780;SDS011;10050;55.492;13.506;2024-01-25T06:08:41;19.60;;;4.27;;
19780;SDS011;10050;55.492;13.506;2024-01-25T06:11:14;17.93;;;4.33;;
19780;SDS011;10050;55.492;13.506;2024-01-25T06:13:40;24.27;;;5.23;;
19780;SDS011;10050;55.492;13.506;2024-01-25T06:16:22;14.03;;;3.90;;
19780;SDS011;10050;55.492;13.506;2024-01-25T06:18:50;17.90;;;3.47;;
19780;SDS011;10050;55.492;13.506;2024-01-25T06:21:19;12.23;;;3.30;;
19780;SDS011;10050;55.492;13.506;2024-01-25T06:23:51;21.30;;;4.97;;
19780;SDS011;10050;55.492;13.506;2024-01-25T06:29:44;15.20;;;4.30;;
19780;SDS011;10050;55.492;13.506;2024-01-25T06:32:14;19.33;;;3.80;;
19780;SDS011;10050;55.492;13.506;2024-01-25T06:34:50;19.60;;;3.80;;
19780;SDS011;10050;55.492;13.506;2024-01-25T06:37:18;25.27;;;4.13;;
19780;SDS011;10050;55.492;13.506;2024-01-25T06:39:46;22.87;;;4.87;;
19780;SDS011;10050;55.492;13.506;2024-01-25T06:42:13;25.10;;;3.97;;
19780;SDS011;10050;55.492;13.506;2024-01-25T06:44:39;23.53;;;5.10;;
19780;SDS011;10050;55.492;13.506;2024-01-25T06:47:05;13.63;;;3.43;;
19780;SDS011;10050;55.492;13.506;2024-01-25T06:49:30;17.73;;;3.40;;
19780;SDS011;10050;55.492;13.506;2024-01-25T06:51:56;16.53;;;3.93;;
19780;SDS011;10050;55.492;13.506;2024-01-25T06:54:22;13.03;;;3.57;;
19780;SDS011;10050;55.492;13.506;2024-01-25T06:56:47;18.07;;;3.80;;
19780;SDS011;10050;55.492;13.506;2024-01-25T06:59:16;16.17;;;3.60;;
19780;SDS011;10050;55.492;13.506;2024-01-25T07:01:42;18.93;;;3.77;;
19780;SDS011;10050;55.492;13.506;2024-01-25T07:04:10;23.97;;;4.80;;
19780;SDS011;10050;55.492;13.506;2024-01-25T07:06:35;16.63;;;3.67;;
19780;SDS011;10050;55.492;13.506;2024-01-25T07:09:01;14.10;;;3.23;;
19780;SDS011;10050;55.492;13.506;2024-01-25T07:11:27;19.70;;;3.93;;
19780;SDS011;10050;55.492;13.506;2024-01-25T07:13:53;22.57;;;4.40;;
19780;SDS011;10050;55.492;13.506;2024-01-25T07:16:18;14.03;;;4.10;;
19780;SDS011;10050;55.492;13.506;2024-01-25T07:18:53;18.03;;;4.03;;
19780;SDS011;10050;55.492;13.506;2024-01-25T07:21:19;19.23;;;3.63;;
19780;SDS011;10050;55.492;13.506;2024-01-25T07:23:44;13.20;;;4.03;;
19780;SDS011;10050;55.492;13.506;2024-01-25T07:26:15;17.97;;;3.73;;
19780;SDS011;10050;55.492;13.506;2024-01-25T07:28:42;15.73;;;3.70;;
19780;SDS011;10050;55.492;13.506;2024-01-25T07:31:07;13.37;;;3.67;;
19780;SDS011;10050;55.492;13.506;2024-01-25T07:33:35;14.57;;;3.57;;
19780;SDS011;10050;55.492;13.506;2024-01-25T07:36:02;9.33;;;2.97;;
19780;SDS011;10050;55.492;13.506;2024-01-25T07:38:40;13.93;;;3.53;;
19780;SDS011;10050;55.492;13.506;2024-01-25T07:41:33;17.40;;;3.40;;
19780;SDS011;10050;55.492;13.506;2024-01-25T07:44:04;15.40;;;3.43;;
19780;SDS011;10050;55.492;13.506;2024-01-25T07:46:31;17.50;;;3.67;;
19780;SDS011;10050;55.492;13.506;2024-01-25T07:48:57;9.60;;;3.77;;
19780;SDS011;10050;55.492;13.506;2024-01-25T07:51:26;16.33;;;3.40;;
19780;SDS011;10050;55.492;13.506;2024-01-25T07:53:56;14.50;;;3.40;;
19780;SDS011;10050;55.492;13.506;2024-01-25T07:56:33;11.00;;;3.00;;
19780;SDS011;10050;55.492;13.506;2024-01-25T07:59:08;13.50;;;3.53;;
19780;SDS011;10050;55.492;13.506;2024-01-25T08:01:35;14.73;;;3.33;;
19780;SDS011;10050;55.492;13.506;2024-01-25T08:04:01;17.03;;;3.83;;
19780;SDS011;10050;55.492;13.506;2024-01-25T08:06:28;10.87;;;2.90;;
19780;SDS011;10050;55.492;13.506;2024-01-25T08:08:57;16.97;;;3.73;;
19780;SDS011;10050;55.492;13.506;2024-01-25T08:11:23;20.20;;;3.67;;
19780;SDS011;10050;55.492;13.506;2024-01-25T08:13:54;10.57;;;3.00;;
19780;SDS011;10050;55.492;13.506;2024-01-25T08:16:20;17.33;;;3.77;;
19780;SDS011;10050;55.492;13.506;2024-01-25T08:18:49;21.67;;;3.83;;
19780;SDS011;10050;55.492;13.506;2024-01-25T08:21:14;12.53;;;2.70;;
19780;SDS011;10050;55.492;13.506;2024-01-25T08:23:40;17.33;;;3.57;;
19780;SDS011;10050;55.492;13.506;2024-01-25T08:26:06;14.20;;;2.77;;
19780;SDS011;10050;55.492;13.506;2024-01-25T08:28:41;12.47;;;3.07;;
19780;SDS011;10050;55.492;13.506;2024-01-25T08:31:11;14.33;;;3.30;;
19780;SDS011;10050;55.492;13.506;2024-01-25T08:33:38;13.60;;;3.23;;
19780;SDS011;10050;55.492;13.506;2024-01-25T08:36:07;10.67;;;3.17;;
19780;SDS011;10050;55.492;13.506;2024-01-25T08:38:32;9.70;;;3.13;;
19780;SDS011;10050;55.492;13.506;2024-01-25T08:40:58;9.67;;;3.60;;
19780;SDS011;10050;55.492;13.506;2024-01-25T08:43:24;13.67;;;2.97;;
19780;SDS011;10050;55.492;13.506;2024-01-25T08:45:50;9.20;;;2.43;;
19780;SDS011;10050;55.492;13.506;2024-01-25T08:48:15;13.57;;;3.10;;
19780;SDS011;10050;55.492;13.506;2024-01-25T08:50:41;14.00;;;2.83;;
19780;SDS011;10050;55.492;13.506;2024-01-25T08:53:07;11.27;;;3.17;;
19780;SDS011;10050;55.492;13.506;2024-01-25T08:55:33;23.37;;;3.57;;
19780;SDS011;10050;55.492;13.506;2024-01-25T08:57:58;11.20;;;2.83;;
19780;SDS011;10050;55.492;13.506;2024-01-25T09:00:24;16.43;;;3.77;;
19780;SDS011;10050;55.492;13.506;2024-01-25T09:02:50;10.87;;;2.83;;
19780;SDS011;10050;55.492;13.506;2024-01-25T09:05:16;14.33;;;2.90;;
19780;SDS011;10050;55.492;13.506;2024-01-25T09:07:41;13.43;;;2.83;;
19780;SDS011;10050;55.492;13.506;2024-01-25T09:10:08;11.00;;;2.90;;
19780;SDS011;10050;55.492;13.506;2024-01-25T09:12:37;8.33;;;2.50;;
19780;SDS011;10050;55.492;13.506;2024-01-25T09:15:04;13.00;;;2.50;;
19780;SDS011;10050;55.492;13.506;2024-01-25T09:17:30;22.37;;;3.73;;
19780;SDS011;10050;55.492;13.506;2024-01-25T09:19:55;8.33;;;2.93;;
19780;SDS011;10050;55.492;13.506;2024-01-25T09:22:24;17.07;;;3.67;;
19780;SDS011;10050;55.492;13.506;2024-01-25T09:24:49;9.43;;;2.77;;
19780;SDS011;10050;55.492;13.506;2024-01-25T09:27:15;12.63;;;3.30;;
19780;SDS011;10050;55.492;13.506;2024-01-25T09:29:41;12.50;;;3.67;;
19780;SDS011;10050;55.492;13.506;2024-01-25T09:32:07;15.47;;;3.10;;
19780;SDS011;10050;55.492;13.506;2024-01-25T09:34:37;17.50;;;3.60;;
19780;SDS011;10050;55.492;13.506;2024-01-25T09:37:03;9.00;;;2.83;;
19780;SDS011;10050;55.492;13.506;2024-01-25T09:39:30;15.70;;;3.33;;
19780;SDS011;10050;55.492;13.506;2024-01-25T09:41:56;13.57;;;3.40;;
19780;SDS011;10050;55.492;13.506;2024-01-25T09:44:22;8.10;;;2.33;;
19780;SDS011;10050;55.492;13.506;2024-01-25T09:46:49;13.03;;;2.93;;
19780;SDS011;10050;55.492;13.506;2024-01-25T09:49:16;13.60;;;3.20;;
19780;SDS011;10050;55.492;13.506;2024-01-25T09:51:42;9.30;;;2.40;;
19780;SDS011;10050;55.492;13.506;2024-01-25T09:54:08;11.87;;;2.93;;
19780;SDS011;10050;55.492;13.506;2024-01-25T09:56:35;9.93;;;2.87;;
19780;SDS011;10050;55.492;13.506;2024-01-25T09:59:01;14.70;;;3.60;;
19780;SDS011;10050;55.492;13.506;2024-01-25T10:01:28;9.40;;;2.80;;
19780;SDS011;10050;55.492;13.506;2024-01-25T10:03:54;12.60;;;2.80;;
19780;SDS011;10050;55.492;13.506;2024-01-25T10:06:22;7.87;;;1.90;;
19780;SDS011;10050;55.492;13.506;2024-01-25T10:08:49;5.60;;;2.13;;
19780;SDS011;10050;55.492;13.506;2024-01-25T10:11:14;7.23;;;1.93;;
19780;SDS011;10050;55.492;13.506;2024-01-25T10:13:45;5.03;;;1.70;;
19780;SDS011;10050;55.492;13.506;2024-01-25T10:16:17;7.20;;;1.80;;
19780;SDS011;10050;55.492;13.506;2024-01-25T10:18:47;6.10;;;1.90;;
19780;SDS011;10050;55.492;13.506;2024-01-25T10:21:14;6.63;;;2.13;;
19780;SDS011;10050;55.492;13.506;2024-01-25T10:23:47;4.13;;;2.07;;
19780;SDS011;10050;55.492;13.506;2024-01-25T10:26:15;4.40;;;1.80;;
19780;SDS011;10050;55.492;13.506;2024-01-25T10:28:41;5.13;;;1.77;;
19780;SDS011;10050;55.492;13.506;2024-01-25T10:31:07;4.10;;;1.67;;
19780;SDS011;10050;55.492;13.506;2024-01-25T10:33:34;3.77;;;1.37;;
19780;SDS011;10050;55.492;13.506;2024-01-25T10:36:01;2.60;;;1.43;;
19780;SDS011;10050;55.492;13.506;2024-01-25T10:38:31;5.47;;;1.67;;
19780;SDS011;10050;55.492;13.506;2024-01-25T10:40:59;4.47;;;1.90;;
19780;SDS011;10050;55.492;13.506;2024-01-25T10:43:26;5.37;;;2.00;;
19780;SDS011;10050;55.492;13.506;2024-01-25T10:45:52;2.93;;;1.80;;
19780;SDS011;10050;55.492;13.506;2024-01-25T10:48:21;5.07;;;1.83;;
19780;SDS011;10050;55.492;13.506;2024-01-25T10:50:48;4.93;;;1.67;;
19780;SDS011;10050;55.492;13.506;2024-01-25T10:53:17;2.87;;;1.97;;
19780;SDS011;10050;55.492;13.506;2024-01-25T10:55:44;4.50;;;1.77;;
19780;SDS011;10050;55.492;13.506;2024-01-25T10:58:15;2.13;;;1.40;;
19780;SDS011;10050;55.492;13.506;2024-01-25T11:00:49;4.20;;;1.70;;
19780;SDS011;10050;55.492;13.506;2024-01-25T11:03:17;4.23;;;2.10;;
19780;SDS011;10050;55.492;13.506;2024-01-25T11:05:45;6.13;;;2.40;;
19780;SDS011;10050;55.492;13.506;2024-01-25T11:11:53;4.03;;;1.73;;
19780;SDS011;10050;55.492;13.506;2024-01-25T11:14:19;6.77;;;2.67;;
19780;SDS011;10050;55.492;13.506;2024-01-25T11:16:45;4.10;;;1.77;;
19780;SDS011;10050;55.492;13.506;2024-01-25T11:19:18;2.77;;;1.37;;
19780;SDS011;10050;55.492;13.506;2024-01-25T11:21:47;3.50;;;1.60;;
19780;SDS011;10050;55.492;13.506;2024-01-25T11:24:21;3.73;;;1.43;;
19780;SDS011;10050;55.492;13.506;2024-01-25T11:26:47;2.60;;;1.27;;
19780;SDS011;10050;55.492;13.506;2024-01-25T11:29:15;2.50;;;1.60;;
19780;SDS011;10050;55.492;13.506;2024-01-25T11:31:45;3.90;;;1.53;;
19780;SDS011;10050;55.492;13.506;2024-01-25T11:34:12;2.63;;;1.40;;
19780;SDS011;10050;55.492;13.506;2024-01-25T11:36:39;3.27;;;1.40;;
19780;SDS011;10050;55.492;13.506;2024-01-25T11:39:08;4.37;;;1.50;;
19780;SDS011;10050;55.492;13.506;2024-01-25T11:41:34;3.03;;;1.40;;
19780;SDS011;10050;55.492;13.506;2024-01-25T11:44:01;2.20;;;1.50;;
19780;SDS011;10050;55.492;13.506;2024-01-25T11:46:32;3.13;;;1.40;;
19780;SDS011;10050;55.492;13.506;2024-01-25T11:48:58;2.47;;;1.10;;
19780;SDS011;10050;55.492;13.506;2024-01-25T11:51:27;1.67;;;1.27;;
19780;SDS011;10050;55.492;13.506;2024-01-25T11:53:55;5.97;;;1.53;;
19780;SDS011;10050;55.492;13.506;2024-01-25T11:56:28;3.90;;;1.50;;
19780;SDS011;10050;55.492;13.506;2024-01-25T11:59:01;6.70;;;1.40;;
19780;SDS011;10050;55.492;13.506;2024-01-25T12:01:35;1.87;;;1.13;;
19780;SDS011;10050;55.492;13.506;2024-01-25T12:04:04;3.00;;;1.33;;
19780;SDS011;10050;55.492;13.506;2024-01-25T12:06:32;1.37;;;1.17;;
19780;SDS011;10050;55.492;13.506;2024-01-25T12:09:08;2.97;;;1.60;;
19780;SDS011;10050;55.492;13.506;2024-01-25T12:11:41;2.10;;;1.43;;
19780;SDS011;10050;55.492;13.506;2024-01-25T12:14:31;2.70;;;1.40;;
19780;SDS011;10050;55.492;13.506;2024-01-25T12:17:00;3.67;;;1.80;;
19780;SDS011;10050;55.492;13.506;2024-01-25T12:19:31;3.23;;;1.60;;
19780;SDS011;10050;55.492;13.506;2024-01-25T12:21:58;3.17;;;1.23;;
19780;SDS011;10050;55.492;13.506;2024-01-25T12:24:23;5.13;;;1.50;;
19780;SDS011;10050;55.492;13.506;2024-01-25T12:26:50;3.50;;;1.47;;
19780;SDS011;10050;55.492;13.506;2024-01-25T12:29:16;3.40;;;1.90;;
19780;SDS011;10050;55.492;13.506;2024-01-25T12:31:43;4.50;;;1.57;;
19780;SDS011;10050;55.492;13.506;2024-01-25T12:34:18;4.07;;;1.60;;
19780;SDS011;10050;55.492;13.506;2024-01-25T12:36:44;8.63;;;1.63;;
19780;SDS011;10050;55.492;13.506;2024-01-25T12:39:09;4.83;;;1.43;;
19780;SDS011;10050;55.492;13.506;2024-01-25T12:41:39;6.33;;;1.70;;
19780;SDS011;10050;55.492;13.506;2024-01-25T12:44:09;2.43;;;1.53;;
19780;SDS011;10050;55.492;13.506;2024-01-25T12:46:35;6.10;;;1.97;;
19780;SDS011;10050;55.492;13.506;2024-01-25T12:49:01;3.07;;;1.40;;
19780;SDS011;10050;55.492;13.506;2024-01-25T12:51:29;6.67;;;1.43;;
19780;SDS011;10050;55.492;13.506;2024-01-25T12:53:58;2.57;;;1.60;;
19780;SDS011;10050;55.492;13.506;2024-01-25T12:56:28;4.07;;;1.70;;
19780;SDS011;10050;55.492;13.506;2024-01-25T12:59:15;5.60;;;1.40;;
19780;SDS011;10050;55.492;13.506;2024-01-25T13:01:41;2.27;;;1.23;;
19780;SDS011;10050;55.492;13.506;2024-01-25T13:04:16;4.90;;;1.20;;
19780;SDS011;10050;55.492;13.506;2024-01-25T13:06:48;4.63;;;1.37;;
19780;SDS011;10050;55.492;13.506;2024-01-25T13:09:21;3.90;;;1.63;;
19780;SDS011;10050;55.492;13.506;2024-01-25T13:11:48;3.70;;;1.50;;
19780;SDS011;10050;55.492;13.506;2024-01-25T13:14:19;4.13;;;1.43;;
19780;SDS011;10050;55.492;13.506;2024-01-25T13:16:47;5.17;;;1.70;;
19780;SDS011;10050;55.492;13.506;2024-01-25T13:19:23;5.70;;;2.10;;
19780;SDS011;10050;55.492;13.506;2024-01-25T13:21:51;4.33;;;2.40;;
19780;SDS011;10050;55.492;13.506;2024-01-25T13:24:21;3.93;;;2.10;;
19780;SDS011;10050;55.492;13.506;2024-01-25T13:27:22;6.10;;;2.30;;
19780;SDS011;10050;55.492;13.506;2024-01-25T13:30:15;4.83;;;2.83;;
19780;SDS011;10050;55.492;13.506;2024-01-25T13:33:04;2.73;;;2.10;;
19780;SDS011;10050;55.492;13.506;2024-01-25T13:35:33;2.60;;;2.13;;
19780;SDS011;10050;55.492;13.506;2024-01-25T13:38:01;2.00;;;1.47;;
19780;SDS011;10050;55.492;13.506;2024-01-25T13:40:31;4.30;;;1.67;;
19780;SDS011;10050;55.492;13.506;2024-01-25T13:43:00;3.60;;;1.70;;
19780;SDS011;10050;55.492;13.506;2024-01-25T13:45:26;2.30;;;1.20;;
19780;SDS011;10050;55.492;13.506;2024-01-25T13:47:53;2.37;;;1.40;;
19780;SDS011;10050;55.492;13.506;2024-01-25T13:50:21;4.47;;;1.57;;
19780;SDS011;10050;55.492;13.506;2024-01-25T13:52:49;3.77;;;1.10;;
19780;SDS011;10050;55.492;13.506;2024-01-25T13:55:15;4.20;;;0.83;;
19780;SDS011;10050;55.492;13.506;2024-01-25T13:57:41;4.27;;;1.57;;
19780;SDS011;10050;55.492;13.506;2024-01-25T14:00:11;3.30;;;1.40;;
19780;SDS011;10050;55.492;13.506;2024-01-25T14:02:39;2.97;;;0.90;;
19780;SDS011;10050;55.492;13.506;2024-01-25T14:05:07;1.43;;;1.03;;
19780;SDS011;10050;55.492;13.506;2024-01-25T14:07:33;2.43;;;1.47;;
19780;SDS011;10050;55.492;13.506;2024-01-25T14:09:59;1.97;;;0.90;;
19780;SDS011;10050;55.492;13.506;2024-01-25T14:12:25;3.37;;;1.10;;
19780;SDS011;10050;55.492;13.506;2024-01-25T14:14:50;3.10;;;1.23;;
19780;SDS011;10050;55.492;13.506;2024-01-25T14:17:16;1.97;;;1.07;;
19780;SDS011;10050;55.492;13.506;2024-01-25T14:19:42;1.73;;;1.10;;
19780;SDS011;10050;55.492;13.506;2024-01-25T14:22:07;2.30;;;1.10;;
19780;SDS011;10050;55.492;13.506;2024-01-25T14:24:35;3.20;;;1.00;;
19780;SDS011;10050;55.492;13.506;2024-01-25T14:27:01;3.03;;;1.07;;
19780;SDS011;10050;55.492;13.506;2024-01-25T14:29:27;3.20;;;1.50;;
19780;SDS011;10050;55.492;13.506;2024-01-25T14:31:59;2.23;;;1.40;;
19780;SDS011;10050;55.492;13.506;2024-01-25T14:34:26;4.83;;;1.40;;
19780;SDS011;10050;55.492;13.506;2024-01-25T14:36:51;3.73;;;1.00;;
19780;SDS011;10050;55.492;13.506;2024-01-25T14:39:17;2.20;;;1.10;;
19780;SDS011;10050;55.492;13.506;2024-01-25T14:41:43;3.57;;;1.63;;
19780;SDS011;10050;55.492;13.506;2024-01-25T14:44:09;2.87;;;1.40;;
19780;SDS011;10050;55.492;13.506;2024-01-25T14:46:37;1.67;;;1.17;;
19780;SDS011;10050;55.492;13.506;2024-01-25T14:49:03;2.67;;;1.40;;
19780;SDS011;10050;55.492;13.506;2024-01-25T14:51:29;2.87;;;1.20;;
19780;SDS011;10050;55.492;13.506;2024-01-25T14:53:55;1.53;;;1.20;;
19780;SDS011;10050;55.492;13.506;2024-01-25T14:56:21;3.57;;;1.40;;